Дата Пункты Температура Давл., мм. Влажн., % Ветер Погодные явления
Воздуха Воды Направл. Скорость
12.05.16 09:00 Одесса 17.0 -40.0 752 82 С 1 09 часов
12.05.16 06:00 Одесса 12.0 15.0 752 95 Пн-З 1 06 часов
12.05.16 03:00 Одесса 13.0 15.0 752 92 З 2 03 часа
11.05.16 09:00 Одесса 16.0 15.0 754 83 Пд-З 2 21 час
11.05.16 06:00 Одесса 16.0 15.0 754 87 Пд 2 18 часов
11.05.16 03:00 Одесса 16.0 15.0 755 89 Пд 5 15 часов
11.05.16 12:00 Одесса 20.0 14.0 756 67 Пн 3 12 часов
11.05.16 09:00 Одесса 16.0 14.0 757 86 Пн 2 09 часов
11.05.16 06:00 Одесса 11.0 14.0 757 98 Пн-З 1 06 часов
11.05.16 03:00 Одесса 12.0 14.0 757 97 Пн-З 1 03 часа
10.05.16 09:00 Одесса 14.0 14.0 758 98 Пн 1 21 час
10.05.16 06:00 Одесса 18.0 13.0 758 81 Пн-З 2 18 часов
10.05.16 03:00 Одесса 20.0 13.0 758 63 Пд 4 15 часов
10.05.16 12:00 Одесса 21.0 14.0 760 62 Пн 3 12 часов
10.05.16 09:00 Одесса 17.0 14.0 761 69 Пн-З 2 09 часов
10.05.16 06:00 Одесса 13.0 13.0 761 79 Пн-З 2 06 часов
10.05.16 03:00 Одесса 13.0 13.0 762 87 З 1 03 часа
09.05.16 09:00 Одесса 15.0 13.0 762 77 З 2 21 час
09.05.16 06:00 Одесса 18.0 14.0 762 69 Пд 2 18 часов
09.05.16 03:00 Одесса 20.0 14.0 763 51 Пд-С 2 15 часов
Количество строк
351 352 353 354 355 356 357 358 359 360
Page 360 of 523